sensor_id;sensor_type;location;lat;lon;timestamp;P1;durP1;ratioP1;P2;durP2;ratioP2
59310;SDS011;45078;51.654;21.250;2022-11-15T00:01:15;33.40;;;13.85;;
59310;SDS011;45078;51.654;21.250;2022-11-15T00:03:43;35.03;;;13.18;;
59310;SDS011;45078;51.654;21.250;2022-11-15T00:06:09;33.65;;;13.15;;
59310;SDS011;45078;51.654;21.250;2022-11-15T00:08:34;31.38;;;12.75;;
59310;SDS011;45078;51.654;21.250;2022-11-15T00:11:01;31.17;;;13.15;;
59310;SDS011;45078;51.654;21.250;2022-11-15T00:13:28;31.95;;;13.13;;
59310;SDS011;45078;51.654;21.250;2022-11-15T00:15:58;30.73;;;12.70;;
59310;SDS011;45078;51.654;21.250;2022-11-15T00:18:25;30.25;;;12.82;;
59310;SDS011;45078;51.654;21.250;2022-11-15T00:20:51;32.92;;;13.52;;
59310;SDS011;45078;51.654;21.250;2022-11-15T00:23:17;34.33;;;13.95;;
59310;SDS011;45078;51.654;21.250;2022-11-15T00:25:43;35.20;;;14.77;;
59310;SDS011;45078;51.654;21.250;2022-11-15T00:28:09;31.65;;;13.20;;
59310;SDS011;45078;51.654;21.250;2022-11-15T00:30:34;35.47;;;13.80;;
59310;SDS011;45078;51.654;21.250;2022-11-15T00:33:04;38.40;;;15.32;;
59310;SDS011;45078;51.654;21.250;2022-11-15T00:35:31;22.15;;;10.82;;
59310;SDS011;45078;51.654;21.250;2022-11-15T00:37:58;32.58;;;13.75;;
59310;SDS011;45078;51.654;21.250;2022-11-15T00:40:25;33.55;;;13.57;;
59310;SDS011;45078;51.654;21.250;2022-11-15T00:42:51;32.20;;;12.82;;
59310;SDS011;45078;51.654;21.250;2022-11-15T00:45:17;29.77;;;12.73;;
59310;SDS011;45078;51.654;21.250;2022-11-15T00:47:45;34.28;;;14.85;;
59310;SDS011;45078;51.654;21.250;2022-11-15T00:50:11;37.88;;;14.02;;
59310;SDS011;45078;51.654;21.250;2022-11-15T00:52:38;34.63;;;13.95;;
59310;SDS011;45078;51.654;21.250;2022-11-15T00:55:04;34.20;;;14.15;;
59310;SDS011;45078;51.654;21.250;2022-11-15T00:57:30;26.10;;;10.77;;
59310;SDS011;45078;51.654;21.250;2022-11-15T00:59:56;36.60;;;13.88;;
59310;SDS011;45078;51.654;21.250;2022-11-15T01:02:22;43.50;;;15.18;;
59310;SDS011;45078;51.654;21.250;2022-11-15T01:04:48;32.85;;;13.05;;
59310;SDS011;45078;51.654;21.250;2022-11-15T01:07:13;39.22;;;15.07;;
59310;SDS011;45078;51.654;21.250;2022-11-15T01:09:39;40.83;;;13.80;;
59310;SDS011;45078;51.654;21.250;2022-11-15T01:12:05;34.10;;;13.75;;
59310;SDS011;45078;51.654;21.250;2022-11-15T01:14:31;34.55;;;13.65;;
59310;SDS011;45078;51.654;21.250;2022-11-15T01:16:57;35.65;;;12.98;;
59310;SDS011;45078;51.654;21.250;2022-11-15T01:19:23;21.48;;;10.70;;
59310;SDS011;45078;51.654;21.250;2022-11-15T01:21:49;40.53;;;14.00;;
59310;SDS011;45078;51.654;21.250;2022-11-15T01:24:15;42.50;;;15.18;;
59310;SDS011;45078;51.654;21.250;2022-11-15T01:26:41;37.92;;;13.95;;
59310;SDS011;45078;51.654;21.250;2022-11-15T01:29:07;33.53;;;12.48;;
59310;SDS011;45078;51.654;21.250;2022-11-15T01:31:33;33.45;;;12.82;;
59310;SDS011;45078;51.654;21.250;2022-11-15T01:33:58;31.60;;;12.50;;
59310;SDS011;45078;51.654;21.250;2022-11-15T01:36:24;34.35;;;13.48;;
59310;SDS011;45078;51.654;21.250;2022-11-15T01:38:53;37.88;;;14.13;;
59310;SDS011;45078;51.654;21.250;2022-11-15T01:41:22;23.33;;;9.38;;
59310;SDS011;45078;51.654;21.250;2022-11-15T01:43:53;39.17;;;13.65;;
59310;SDS011;45078;51.654;21.250;2022-11-15T01:46:32;28.40;;;11.63;;
59310;SDS011;45078;51.654;21.250;2022-11-15T01:49:21;33.80;;;11.70;;
59310;SDS011;45078;51.654;21.250;2022-11-15T01:51:46;34.15;;;12.68;;
59310;SDS011;45078;51.654;21.250;2022-11-15T01:54:13;30.70;;;11.98;;
59310;SDS011;45078;51.654;21.250;2022-11-15T01:59:33;30.38;;;11.70;;
59310;SDS011;45078;51.654;21.250;2022-11-15T02:01:59;30.73;;;12.63;;
59310;SDS011;45078;51.654;21.250;2022-11-15T02:04:26;34.20;;;13.15;;
59310;SDS011;45078;51.654;21.250;2022-11-15T02:06:54;30.80;;;10.98;;
59310;SDS011;45078;51.654;21.250;2022-11-15T02:09:20;32.92;;;12.75;;
59310;SDS011;45078;51.654;21.250;2022-11-15T02:11:47;32.60;;;12.98;;
59310;SDS011;45078;51.654;21.250;2022-11-15T02:14:15;27.20;;;11.38;;
59310;SDS011;45078;51.654;21.250;2022-11-15T02:28:57;30.08;;;12.55;;
59310;SDS011;45078;51.654;21.250;2022-11-15T02:37:32;33.13;;;11.82;;
59310;SDS011;45078;51.654;21.250;2022-11-15T02:43:24;39.92;;;13.85;;
59310;SDS011;45078;51.654;21.250;2022-11-15T02:46:20;37.35;;;11.95;;
59310;SDS011;45078;51.654;21.250;2022-11-15T02:49:11;35.30;;;13.05;;
59310;SDS011;45078;51.654;21.250;2022-11-15T02:51:38;34.35;;;12.18;;
59310;SDS011;45078;51.654;21.250;2022-11-15T02:54:06;24.70;;;10.70;;
59310;SDS011;45078;51.654;21.250;2022-11-15T02:56:32;26.65;;;10.70;;
59310;SDS011;45078;51.654;21.250;2022-11-15T03:05:03;28.40;;;10.75;;
59310;SDS011;45078;51.654;21.250;2022-11-15T03:08:01;29.08;;;10.10;;
59310;SDS011;45078;51.654;21.250;2022-11-15T03:10:36;19.80;;;7.05;;
59310;SDS011;45078;51.654;21.250;2022-11-15T03:13:52;42.03;;;12.25;;
59310;SDS011;45078;51.654;21.250;2022-11-15T03:16:03;38.75;;;11.43;;
59310;SDS011;45078;51.654;21.250;2022-11-15T03:18:36;38.40;;;13.27;;
59310;SDS011;45078;51.654;21.250;2022-11-15T03:21:07;28.67;;;10.73;;
59310;SDS011;45078;51.654;21.250;2022-11-15T03:23:37;38.85;;;14.10;;
59310;SDS011;45078;51.654;21.250;2022-11-15T03:26:07;44.08;;;12.98;;
59310;SDS011;45078;51.654;21.250;2022-11-15T03:31:08;39.35;;;12.45;;
59310;SDS011;45078;51.654;21.250;2022-11-15T03:33:57;39.33;;;12.05;;
59310;SDS011;45078;51.654;21.250;2022-11-15T03:36:25;35.92;;;12.82;;
59310;SDS011;45078;51.654;21.250;2022-11-15T03:38:56;24.83;;;10.20;;
59310;SDS011;45078;51.654;21.250;2022-11-15T03:41:34;32.65;;;11.30;;
59310;SDS011;45078;51.654;21.250;2022-11-15T03:44:19;30.73;;;11.65;;
59310;SDS011;45078;51.654;21.250;2022-11-15T03:49:44;32.78;;;12.55;;
59310;SDS011;45078;51.654;21.250;2022-11-15T03:52:17;27.27;;;11.15;;
59310;SDS011;45078;51.654;21.250;2022-11-15T03:54:48;47.08;;;13.38;;
59310;SDS011;45078;51.654;21.250;2022-11-15T03:57:18;35.92;;;11.38;;
59310;SDS011;45078;51.654;21.250;2022-11-15T03:59:44;37.15;;;12.13;;
59310;SDS011;45078;51.654;21.250;2022-11-15T04:02:10;31.05;;;9.63;;
59310;SDS011;45078;51.654;21.250;2022-11-15T04:04:36;36.95;;;10.98;;
59310;SDS011;45078;51.654;21.250;2022-11-15T04:07:02;41.28;;;13.25;;
59310;SDS011;45078;51.654;21.250;2022-11-15T04:09:27;34.92;;;11.98;;
59310;SDS011;45078;51.654;21.250;2022-11-15T04:11:53;42.45;;;12.20;;
59310;SDS011;45078;51.654;21.250;2022-11-15T04:14:19;34.67;;;10.85;;
59310;SDS011;45078;51.654;21.250;2022-11-15T04:16:45;25.92;;;9.75;;
59310;SDS011;45078;51.654;21.250;2022-11-15T04:19:11;30.63;;;9.60;;
59310;SDS011;45078;51.654;21.250;2022-11-15T04:21:55;37.25;;;10.35;;
59310;SDS011;45078;51.654;21.250;2022-11-15T04:24:39;20.60;;;8.45;;
59310;SDS011;45078;51.654;21.250;2022-11-15T04:27:05;29.77;;;9.73;;
59310;SDS011;45078;51.654;21.250;2022-11-15T04:29:31;11.82;;;5.93;;
59310;SDS011;45078;51.654;21.250;2022-11-15T04:32:00;26.98;;;9.27;;
59310;SDS011;45078;51.654;21.250;2022-11-15T04:34:27;24.73;;;8.63;;
59310;SDS011;45078;51.654;21.250;2022-11-15T04:36:53;30.17;;;10.20;;
59310;SDS011;45078;51.654;21.250;2022-11-15T04:39:38;21.20;;;7.35;;
59310;SDS011;45078;51.654;21.250;2022-11-15T04:42:04;25.95;;;8.13;;
59310;SDS011;45078;51.654;21.250;2022-11-15T04:44:30;21.50;;;8.80;;
59310;SDS011;45078;51.654;21.250;2022-11-15T04:46:56;27.55;;;9.00;;
59310;SDS011;45078;51.654;21.250;2022-11-15T04:49:22;20.80;;;8.27;;
59310;SDS011;45078;51.654;21.250;2022-11-15T04:51:48;23.98;;;9.10;;
59310;SDS011;45078;51.654;21.250;2022-11-15T04:54:13;25.73;;;9.10;;
59310;SDS011;45078;51.654;21.250;2022-11-15T04:56:39;18.08;;;7.43;;
59310;SDS011;45078;51.654;21.250;2022-11-15T04:59:05;29.98;;;9.30;;
59310;SDS011;45078;51.654;21.250;2022-11-15T05:01:31;31.00;;;10.02;;
59310;SDS011;45078;51.654;21.250;2022-11-15T05:03:57;10.18;;;5.70;;
59310;SDS011;45078;51.654;21.250;2022-11-15T05:06:41;24.02;;;7.65;;
59310;SDS011;45078;51.654;21.250;2022-11-15T05:09:07;20.98;;;6.90;;
59310;SDS011;45078;51.654;21.250;2022-11-15T05:11:33;5.15;;;3.63;;
59310;SDS011;45078;51.654;21.250;2022-11-15T05:13:59;23.52;;;8.23;;
59310;SDS011;45078;51.654;21.250;2022-11-15T05:16:25;6.35;;;3.80;;
59310;SDS011;45078;51.654;21.250;2022-11-15T05:18:51;17.98;;;6.93;;
59310;SDS011;45078;51.654;21.250;2022-11-15T05:21:17;26.33;;;10.23;;
59310;SDS011;45078;51.654;21.250;2022-11-15T05:23:43;23.85;;;8.20;;
59310;SDS011;45078;51.654;21.250;2022-11-15T05:26:09;21.50;;;7.72;;
59310;SDS011;45078;51.654;21.250;2022-11-15T05:28:36;19.15;;;7.63;;
59310;SDS011;45078;51.654;21.250;2022-11-15T05:31:02;19.27;;;6.05;;
59310;SDS011;45078;51.654;21.250;2022-11-15T05:33:30;26.10;;;9.20;;
59310;SDS011;45078;51.654;21.250;2022-11-15T05:35:59;27.23;;;8.55;;
59310;SDS011;45078;51.654;21.250;2022-11-15T05:38:29;39.20;;;7.68;;
59310;SDS011;45078;51.654;21.250;2022-11-15T05:40:55;26.38;;;7.22;;
59310;SDS011;45078;51.654;21.250;2022-11-15T05:43:21;32.22;;;9.45;;
59310;SDS011;45078;51.654;21.250;2022-11-15T05:45:47;34.83;;;9.30;;
59310;SDS011;45078;51.654;21.250;2022-11-15T05:48:13;22.60;;;7.88;;
59310;SDS011;45078;51.654;21.250;2022-11-15T05:50:41;39.20;;;8.93;;
59310;SDS011;45078;51.654;21.250;2022-11-15T05:53:10;26.45;;;8.63;;
59310;SDS011;45078;51.654;21.250;2022-11-15T05:55:38;16.42;;;6.90;;
59310;SDS011;45078;51.654;21.250;2022-11-15T05:58:04;30.40;;;7.28;;
59310;SDS011;45078;51.654;21.250;2022-11-15T06:00:30;32.67;;;9.63;;
59310;SDS011;45078;51.654;21.250;2022-11-15T06:02:56;21.02;;;7.57;;
59310;SDS011;45078;51.654;21.250;2022-11-15T06:05:22;27.25;;;7.95;;
59310;SDS011;45078;51.654;21.250;2022-11-15T06:07:48;27.67;;;8.55;;
59310;SDS011;45078;51.654;21.250;2022-11-15T06:10:14;37.00;;;8.13;;
59310;SDS011;45078;51.654;21.250;2022-11-15T06:12:39;26.08;;;8.77;;
59310;SDS011;45078;51.654;21.250;2022-11-15T06:15:05;18.63;;;6.93;;
59310;SDS011;45078;51.654;21.250;2022-11-15T06:17:31;27.05;;;8.30;;
59310;SDS011;45078;51.654;21.250;2022-11-15T06:19:57;10.55;;;5.28;;
59310;SDS011;45078;51.654;21.250;2022-11-15T06:22:23;31.83;;;5.60;;
59310;SDS011;45078;51.654;21.250;2022-11-15T06:24:49;18.00;;;7.80;;
59310;SDS011;45078;51.654;21.250;2022-11-15T06:27:15;22.10;;;8.00;;
59310;SDS011;45078;51.654;21.250;2022-11-15T06:29:40;23.10;;;7.80;;
59310;SDS011;45078;51.654;21.250;2022-11-15T06:32:06;19.35;;;7.28;;
59310;SDS011;45078;51.654;21.250;2022-11-15T06:34:32;26.52;;;8.20;;
59310;SDS011;45078;51.654;21.250;2022-11-15T06:36:58;23.15;;;6.60;;
59310;SDS011;45078;51.654;21.250;2022-11-15T06:39:24;19.58;;;7.22;;
59310;SDS011;45078;51.654;21.250;2022-11-15T06:41:50;21.45;;;6.55;;
59310;SDS011;45078;51.654;21.250;2022-11-15T06:44:15;21.40;;;7.60;;
59310;SDS011;45078;51.654;21.250;2022-11-15T06:46:41;15.23;;;6.40;;
59310;SDS011;45078;51.654;21.250;2022-11-15T06:49:07;21.23;;;7.30;;
59310;SDS011;45078;51.654;21.250;2022-11-15T06:51:33;20.25;;;7.85;;
59310;SDS011;45078;51.654;21.250;2022-11-15T06:53:58;20.02;;;7.57;;
59310;SDS011;45078;51.654;21.250;2022-11-15T06:56:24;26.92;;;7.90;;
59310;SDS011;45078;51.654;21.250;2022-11-15T06:58:50;20.33;;;5.60;;
59310;SDS011;45078;51.654;21.250;2022-11-15T07:01:16;22.17;;;6.45;;
59310;SDS011;45078;51.654;21.250;2022-11-15T07:03:42;16.48;;;6.18;;
59310;SDS011;45078;51.654;21.250;2022-11-15T07:06:08;23.77;;;6.60;;
59310;SDS011;45078;51.654;21.250;2022-11-15T07:08:34;19.20;;;6.22;;
59310;SDS011;45078;51.654;21.250;2022-11-15T07:11:01;35.90;;;8.35;;
59310;SDS011;45078;51.654;21.250;2022-11-15T07:13:29;21.88;;;7.45;;
59310;SDS011;45078;51.654;21.250;2022-11-15T07:16:05;19.92;;;7.55;;
59310;SDS011;45078;51.654;21.250;2022-11-15T07:18:39;32.08;;;8.63;;
59310;SDS011;45078;51.654;21.250;2022-11-15T07:21:06;20.58;;;7.78;;
59310;SDS011;45078;51.654;21.250;2022-11-15T07:23:35;20.58;;;7.38;;
59310;SDS011;45078;51.654;21.250;2022-11-15T07:26:03;16.65;;;6.70;;
59310;SDS011;45078;51.654;21.250;2022-11-15T07:28:29;18.58;;;7.28;;
59310;SDS011;45078;51.654;21.250;2022-11-15T07:30:55;22.73;;;7.18;;
59310;SDS011;45078;51.654;21.250;2022-11-15T07:33:21;27.63;;;7.45;;
59310;SDS011;45078;51.654;21.250;2022-11-15T07:35:47;20.77;;;7.50;;
59310;SDS011;45078;51.654;21.250;2022-11-15T07:38:16;21.00;;;7.03;;
59310;SDS011;45078;51.654;21.250;2022-11-15T07:40:45;22.42;;;6.40;;
59310;SDS011;45078;51.654;21.250;2022-11-15T07:43:11;11.73;;;5.05;;
59310;SDS011;45078;51.654;21.250;2022-11-15T07:45:44;21.90;;;7.28;;
59310;SDS011;45078;51.654;21.250;2022-11-15T07:48:10;19.92;;;6.60;;
59310;SDS011;45078;51.654;21.250;2022-11-15T07:50:39;23.50;;;6.93;;
59310;SDS011;45078;51.654;21.250;2022-11-15T07:53:07;21.88;;;7.40;;
59310;SDS011;45078;51.654;21.250;2022-11-15T07:55:34;22.88;;;8.45;;
59310;SDS011;45078;51.654;21.250;2022-11-15T07:58:03;27.85;;;8.85;;
59310;SDS011;45078;51.654;21.250;2022-11-15T08:00:30;17.70;;;7.97;;
59310;SDS011;45078;51.654;21.250;2022-11-15T08:03:06;29.83;;;7.70;;
59310;SDS011;45078;51.654;21.250;2022-11-15T08:05:34;26.02;;;8.48;;
59310;SDS011;45078;51.654;21.250;2022-11-15T08:08:00;26.63;;;8.32;;
59310;SDS011;45078;51.654;21.250;2022-11-15T08:10:27;26.40;;;8.68;;
59310;SDS011;45078;51.654;21.250;2022-11-15T08:13:00;24.50;;;8.32;;
59310;SDS011;45078;51.654;21.250;2022-11-15T08:15:31;25.73;;;8.35;;
59310;SDS011;45078;51.654;21.250;2022-11-15T08:17:58;28.48;;;8.70;;
59310;SDS011;45078;51.654;21.250;2022-11-15T08:20:26;33.78;;;8.45;;
59310;SDS011;45078;51.654;21.250;2022-11-15T08:22:56;19.30;;;8.27;;
59310;SDS011;45078;51.654;21.250;2022-11-15T08:25:26;23.95;;;8.88;;
59310;SDS011;45078;51.654;21.250;2022-11-15T08:27:53;31.35;;;8.88;;
59310;SDS011;45078;51.654;21.250;2022-11-15T08:30:20;21.50;;;9.18;;
59310;SDS011;45078;51.654;21.250;2022-11-15T08:32:47;26.08;;;8.68;;
59310;SDS011;45078;51.654;21.250;2022-11-15T08:35:14;21.25;;;7.00;;
59310;SDS011;45078;51.654;21.250;2022-11-15T08:37:40;12.80;;;6.25;;
59310;SDS011;45078;51.654;21.250;2022-11-15T08:40:06;20.05;;;7.85;;
59310;SDS011;45078;51.654;21.250;2022-11-15T08:42:32;24.65;;;8.88;;
59310;SDS011;45078;51.654;21.250;2022-11-15T08:44:58;26.42;;;9.50;;
59310;SDS011;45078;51.654;21.250;2022-11-15T08:47:24;23.17;;;8.30;;
59310;SDS011;45078;51.654;21.250;2022-11-15T08:49:50;24.17;;;9.05;;
59310;SDS011;45078;51.654;21.250;2022-11-15T08:52:16;26.23;;;9.73;;
59310;SDS011;45078;51.654;21.250;2022-11-15T08:54:41;21.90;;;8.90;;
59310;SDS011;45078;51.654;21.250;2022-11-15T08:57:07;24.80;;;8.90;;
59310;SDS011;45078;51.654;21.250;2022-11-15T08:59:34;29.60;;;9.43;;
59310;SDS011;45078;51.654;21.250;2022-11-15T09:02:01;30.42;;;10.07;;
59310;SDS011;45078;51.654;21.250;2022-11-15T09:04:27;25.35;;;9.10;;
59310;SDS011;45078;51.654;21.250;2022-11-15T09:06:53;25.98;;;9.20;;
59310;SDS011;45078;51.654;21.250;2022-11-15T09:09:19;38.92;;;11.27;;
59310;SDS011;45078;51.654;21.250;2022-11-15T09:11:45;33.85;;;10.80;;
59310;SDS011;45078;51.654;21.250;2022-11-15T09:14:13;25.60;;;10.15;;
59310;SDS011;45078;51.654;21.250;2022-11-15T09:16:39;30.17;;;10.02;;
59310;SDS011;45078;51.654;21.250;2022-11-15T09:19:06;32.75;;;10.18;;
59310;SDS011;45078;51.654;21.250;2022-11-15T09:21:32;30.85;;;10.73;;
59310;SDS011;45078;51.654;21.250;2022-11-15T09:23:57;36.47;;;11.05;;
59310;SDS011;45078;51.654;21.250;2022-11-15T09:26:24;30.70;;;10.00;;
59310;SDS011;45078;51.654;21.250;2022-11-15T09:28:50;26.08;;;10.68;;
59310;SDS011;45078;51.654;21.250;2022-11-15T09:31:16;31.45;;;10.50;;
59310;SDS011;45078;51.654;21.250;2022-11-15T09:33:44;23.45;;;9.20;;
59310;SDS011;45078;51.654;21.250;2022-11-15T09:36:11;18.95;;;8.63;;
59310;SDS011;45078;51.654;21.250;2022-11-15T09:38:37;33.42;;;10.77;;
59310;SDS011;45078;51.654;21.250;2022-11-15T09:49:19;31.92;;;11.45;;
59310;SDS011;45078;51.654;21.250;2022-11-15T09:51:47;31.52;;;12.65;;
59310;SDS011;45078;51.654;21.250;2022-11-15T09:59:58;28.13;;;10.57;;
59310;SDS011;45078;51.654;21.250;2022-11-15T10:05:27;26.02;;;10.35;;
59310;SDS011;45078;51.654;21.250;2022-11-15T10:08:00;23.13;;;10.10;;
59310;SDS011;45078;51.654;21.250;2022-11-15T10:25:37;26.20;;;10.02;;
59310;SDS011;45078;51.654;21.250;2022-11-15T10:27:39;18.02;;;8.73;;
59310;SDS011;45078;51.654;21.250;2022-11-15T10:30:10;19.30;;;9.65;;
59310;SDS011;45078;51.654;21.250;2022-11-15T10:32:38;20.90;;;9.77;;
59310;SDS011;45078;51.654;21.250;2022-11-15T10:35:26;23.48;;;10.20;;
59310;SDS011;45078;51.654;21.250;2022-11-15T10:38:10;26.92;;;11.60;;
59310;SDS011;45078;51.654;21.250;2022-11-15T10:40:38;26.30;;;11.57;;
59310;SDS011;45078;51.654;21.250;2022-11-15T10:45:36;29.75;;;12.73;;
59310;SDS011;45078;51.654;21.250;2022-11-15T10:50:49;30.88;;;12.48;;
59310;SDS011;45078;51.654;21.250;2022-11-15T10:53:30;30.73;;;11.88;;
59310;SDS011;45078;51.654;21.250;2022-11-15T10:56:06;24.98;;;11.18;;
59310;SDS011;45078;51.654;21.250;2022-11-15T10:58:43;25.90;;;11.80;;
59310;SDS011;45078;51.654;21.250;2022-11-15T11:03:41;29.92;;;12.43;;
59310;SDS011;45078;51.654;21.250;2022-11-15T11:06:12;21.55;;;10.07;;
59310;SDS011;45078;51.654;21.250;2022-11-15T11:08:40;20.05;;;10.65;;
59310;SDS011;45078;51.654;21.250;2022-11-15T11:11:48;27.85;;;10.43;;
59310;SDS011;45078;51.654;21.250;2022-11-15T11:14:28;29.27;;;12.77;;
59310;SDS011;45078;51.654;21.250;2022-11-15T11:36:38;13.30;;;6.82;;
59310;SDS011;45078;51.654;21.250;2022-11-15T11:47:44;22.88;;;10.68;;
59310;SDS011;45078;51.654;21.250;2022-11-15T11:50:15;23.05;;;10.20;;
59310;SDS011;45078;51.654;21.250;2022-11-15T12:01:04;25.13;;;11.00;;
59310;SDS011;45078;51.654;21.250;2022-11-15T12:07:25;23.58;;;10.73;;
59310;SDS011;45078;51.654;21.250;2022-11-15T12:10:01;23.98;;;11.68;;
59310;SDS011;45078;51.654;21.250;2022-11-15T12:12:55;23.15;;;11.13;;
59310;SDS011;45078;51.654;21.250;2022-11-15T12:15:30;26.98;;;11.73;;
59310;SDS011;45078;51.654;21.250;2022-11-15T12:18:00;28.63;;;12.23;;
59310;SDS011;45078;51.654;21.250;2022-11-15T12:20:32;25.70;;;11.20;;
59310;SDS011;45078;51.654;21.250;2022-11-15T12:23:05;24.83;;;11.52;;
59310;SDS011;45078;51.654;21.250;2022-11-15T12:25:45;23.77;;;11.88;;
59310;SDS011;45078;51.654;21.250;2022-11-15T12:33:41;22.40;;;10.18;;
59310;SDS011;45078;51.654;21.250;2022-11-15T12:41:21;20.45;;;10.48;;
59310;SDS011;45078;51.654;21.250;2022-11-15T12:43:50;23.13;;;10.57;;
59310;SDS011;45078;51.654;21.250;2022-11-15T13:02:24;22.88;;;11.52;;
59310;SDS011;45078;51.654;21.250;2022-11-15T13:04:54;22.90;;;10.52;;
59310;SDS011;45078;51.654;21.250;2022-11-15T13:17:42;20.88;;;10.27;;
59310;SDS011;45078;51.654;21.250;2022-11-15T13:25:16;20.48;;;11.10;;
59310;SDS011;45078;51.654;21.250;2022-11-15T13:27:45;19.80;;;10.35;;
59310;SDS011;45078;51.654;21.250;2022-11-15T13:30:19;18.45;;;10.48;;
59310;SDS011;45078;51.654;21.250;2022-11-15T13:32:47;18.60;;;9.95;;
59310;SDS011;45078;51.654;21.250;2022-11-15T13:35:48;19.30;;;10.32;;
59310;SDS011;45078;51.654;21.250;2022-11-15T13:38:06;18.70;;;10.90;;
59310;SDS011;45078;51.654;21.250;2022-11-15T13:40:43;18.83;;;10.85;;
59310;SDS011;45078;51.654;21.250;2022-11-15T13:48:40;18.80;;;10.60;;
59310;SDS011;45078;51.654;21.250;2022-11-15T13:51:15;17.92;;;10.65;;
59310;SDS011;45078;51.654;21.250;2022-11-15T13:53:58;17.17;;;10.02;;
59310;SDS011;45078;51.654;21.250;2022-11-15T13:56:25;17.73;;;9.85;;
59310;SDS011;45078;51.654;21.250;2022-11-15T13:58:53;18.27;;;10.93;;
59310;SDS011;45078;51.654;21.250;2022-11-15T14:01:20;17.33;;;10.35;;
59310;SDS011;45078;51.654;21.250;2022-11-15T14:03:49;21.13;;;10.38;;
59310;SDS011;45078;51.654;21.250;2022-11-15T14:06:19;19.83;;;10.48;;
59310;SDS011;45078;51.654;21.250;2022-11-15T14:11:34;21.67;;;10.95;;
59310;SDS011;45078;51.654;21.250;2022-11-15T14:14:13;22.27;;;10.98;;
59310;SDS011;45078;51.654;21.250;2022-11-15T14:16:47;19.05;;;10.60;;
59310;SDS011;45078;51.654;21.250;2022-11-15T14:24:39;21.58;;;11.80;;
59310;SDS011;45078;51.654;21.250;2022-11-15T14:27:15;26.38;;;11.55;;
59310;SDS011;45078;51.654;21.250;2022-11-15T14:29:41;26.52;;;12.40;;
59310;SDS011;45078;51.654;21.250;2022-11-15T14:35:02;21.98;;;10.88;;
59310;SDS011;45078;51.654;21.250;2022-11-15T14:37:29;21.25;;;9.45;;
59310;SDS011;45078;51.654;21.250;2022-11-15T14:40:00;24.27;;;11.43;;
59310;SDS011;45078;51.654;21.250;2022-11-15T14:42:27;22.30;;;10.50;;
59310;SDS011;45078;51.654;21.250;2022-11-15T14:44:53;21.27;;;10.63;;
59310;SDS011;45078;51.654;21.250;2022-11-15T14:47:19;24.02;;;11.40;;
59310;SDS011;45078;51.654;21.250;2022-11-15T14:49:45;24.83;;;11.57;;
59310;SDS011;45078;51.654;21.250;2022-11-15T14:52:30;24.85;;;11.02;;
59310;SDS011;45078;51.654;21.250;2022-11-15T14:55:00;22.75;;;10.52;;
59310;SDS011;45078;51.654;21.250;2022-11-15T14:57:27;22.75;;;10.85;;
59310;SDS011;45078;51.654;21.250;2022-11-15T14:59:53;30.00;;;11.57;;
59310;SDS011;45078;51.654;21.250;2022-11-15T15:02:20;30.05;;;11.73;;
59310;SDS011;45078;51.654;21.250;2022-11-15T15:04:48;23.40;;;11.00;;
59310;SDS011;45078;51.654;21.250;2022-11-15T15:07:15;22.90;;;10.13;;
59310;SDS011;45078;51.654;21.250;2022-11-15T15:09:41;22.85;;;10.07;;
59310;SDS011;45078;51.654;21.250;2022-11-15T15:12:18;25.88;;;10.57;;
59310;SDS011;45078;51.654;21.250;2022-11-15T15:14:48;21.25;;;9.70;;
59310;SDS011;45078;51.654;21.250;2022-11-15T15:17:15;25.50;;;10.50;;
59310;SDS011;45078;51.654;21.250;2022-11-15T15:19:42;24.27;;;10.80;;
59310;SDS011;45078;51.654;21.250;2022-11-15T15:22:15;22.58;;;10.38;;
59310;SDS011;45078;51.654;21.250;2022-11-15T15:24:43;24.80;;;10.93;;
59310;SDS011;45078;51.654;21.250;2022-11-15T15:27:10;18.20;;;9.50;;
59310;SDS011;45078;51.654;21.250;2022-11-15T15:29:37;23.95;;;11.40;;
59310;SDS011;45078;51.654;21.250;2022-11-15T15:32:03;22.42;;;9.93;;
59310;SDS011;45078;51.654;21.250;2022-11-15T15:34:30;25.05;;;10.63;;
59310;SDS011;45078;51.654;21.250;2022-11-15T15:39:49;29.15;;;10.52;;
59310;SDS011;45078;51.654;21.250;2022-11-15T15:42:16;26.58;;;10.88;;
59310;SDS011;45078;51.654;21.250;2022-11-15T15:44:42;20.33;;;8.90;;
59310;SDS011;45078;51.654;21.250;2022-11-15T15:47:15;19.85;;;9.60;;
59310;SDS011;45078;51.654;21.250;2022-11-15T15:49:43;24.60;;;10.30;;
59310;SDS011;45078;51.654;21.250;2022-11-15T15:52:10;21.40;;;9.70;;
59310;SDS011;45078;51.654;21.250;2022-11-15T15:54:37;22.65;;;11.38;;
59310;SDS011;45078;51.654;21.250;2022-11-15T15:57:03;23.02;;;9.85;;
59310;SDS011;45078;51.654;21.250;2022-11-15T15:59:30;22.75;;;9.85;;
59310;SDS011;45078;51.654;21.250;2022-11-15T16:01:56;22.48;;;10.30;;
59310;SDS011;45078;51.654;21.250;2022-11-15T16:04:22;23.55;;;10.88;;
59310;SDS011;45078;51.654;21.250;2022-11-15T16:06:48;20.63;;;10.23;;
59310;SDS011;45078;51.654;21.250;2022-11-15T16:09:18;28.15;;;11.85;;
59310;SDS011;45078;51.654;21.250;2022-11-15T16:12:04;34.72;;;14.30;;
59310;SDS011;45078;51.654;21.250;2022-11-15T16:14:31;30.80;;;12.90;;
59310;SDS011;45078;51.654;21.250;2022-11-15T16:16:57;34.17;;;13.20;;
59310;SDS011;45078;51.654;21.250;2022-11-15T16:19:23;32.88;;;13.25;;
59310;SDS011;45078;51.654;21.250;2022-11-15T16:21:48;38.00;;;14.15;;
59310;SDS011;45078;51.654;21.250;2022-11-15T16:24:14;37.83;;;14.27;;
59310;SDS011;45078;51.654;21.250;2022-11-15T16:26:40;32.40;;;13.63;;
59310;SDS011;45078;51.654;21.250;2022-11-15T16:29:07;30.65;;;13.07;;
59310;SDS011;45078;51.654;21.250;2022-11-15T16:31:35;38.25;;;14.52;;
59310;SDS011;45078;51.654;21.250;2022-11-15T16:34:00;36.17;;;13.38;;
59310;SDS011;45078;51.654;21.250;2022-11-15T16:36:26;32.25;;;13.00;;
59310;SDS011;45078;51.654;21.250;2022-11-15T16:38:55;33.65;;;13.82;;
59310;SDS011;45078;51.654;21.250;2022-11-15T16:41:21;33.30;;;12.13;;
59310;SDS011;45078;51.654;21.250;2022-11-15T16:43:47;33.75;;;13.32;;
59310;SDS011;45078;51.654;21.250;2022-11-15T16:46:16;38.25;;;14.50;;
59310;SDS011;45078;51.654;21.250;2022-11-15T16:48:49;31.98;;;13.15;;
59310;SDS011;45078;51.654;21.250;2022-11-15T16:51:15;34.13;;;14.45;;
59310;SDS011;45078;51.654;21.250;2022-11-15T16:53:42;36.65;;;13.85;;
59310;SDS011;45078;51.654;21.250;2022-11-15T16:58:48;32.90;;;13.60;;
59310;SDS011;45078;51.654;21.250;2022-11-15T17:01:18;35.42;;;14.20;;
59310;SDS011;45078;51.654;21.250;2022-11-15T17:03:52;32.97;;;13.95;;
59310;SDS011;45078;51.654;21.250;2022-11-15T17:06:18;31.85;;;13.52;;
59310;SDS011;45078;51.654;21.250;2022-11-15T17:08:45;31.83;;;13.75;;
59310;SDS011;45078;51.654;21.250;2022-11-15T17:11:19;37.88;;;15.25;;
59310;SDS011;45078;51.654;21.250;2022-11-15T17:13:46;36.05;;;15.10;;
59310;SDS011;45078;51.654;21.250;2022-11-15T17:16:14;34.75;;;14.90;;
59310;SDS011;45078;51.654;21.250;2022-11-15T17:18:41;42.15;;;16.05;;
59310;SDS011;45078;51.654;21.250;2022-11-15T17:21:12;46.33;;;18.42;;
59310;SDS011;45078;51.654;21.250;2022-11-15T17:23:40;49.08;;;17.88;;